createdAt,value
2017-07-21T00:00:11.847Z,99.90
2017-07-21T00:02:39.366Z,99.90
2017-07-21T00:05:07.178Z,99.90
2017-07-21T00:07:34.727Z,99.90
2017-07-21T00:10:02.242Z,99.90
2017-07-21T00:12:30.118Z,99.90
2017-07-21T00:14:57.623Z,99.90
2017-07-21T00:17:25.131Z,99.90
2017-07-21T00:19:53.053Z,99.90
2017-07-21T00:22:20.576Z,99.90
2017-07-21T00:24:48.127Z,99.90
2017-07-21T00:27:16.106Z,99.90
2017-07-21T00:29:43.740Z,99.90
2017-07-21T00:32:11.255Z,99.90
2017-07-21T00:34:38.823Z,99.90
2017-07-21T00:37:06.326Z,99.90
2017-07-21T00:39:33.843Z,99.90
2017-07-21T00:42:01.419Z,99.90
2017-07-21T00:44:28.947Z,99.90
2017-07-21T00:46:56.460Z,99.90
2017-07-21T00:49:24.005Z,99.90
2017-07-21T00:51:51.648Z,99.90
2017-07-21T00:54:19.163Z,99.90
2017-07-21T00:56:47.080Z,99.90
2017-07-21T00:59:14.589Z,99.90
2017-07-21T01:01:42.094Z,99.90
2017-07-21T01:04:09.887Z,99.90
2017-07-21T01:06:37.659Z,99.90
2017-07-21T01:09:05.843Z,99.90
2017-07-21T01:11:34.131Z,99.90
2017-07-21T01:14:01.715Z,99.90
2017-07-21T01:16:29.223Z,99.90
2017-07-21T01:18:56.755Z,99.90
2017-07-21T01:21:24.565Z,99.90
2017-07-21T01:23:52.221Z,99.90
2017-07-21T01:26:19.802Z,99.90
2017-07-21T01:28:47.622Z,99.90
2017-07-21T01:31:15.139Z,99.90
2017-07-21T01:33:42.664Z,99.90
2017-07-21T01:36:10.470Z,99.90
2017-07-21T01:38:37.975Z,99.90
2017-07-21T01:41:05.511Z,99.90
2017-07-21T01:43:33.326Z,99.90
2017-07-21T01:46:00.847Z,99.90
2017-07-21T01:48:28.353Z,99.90
2017-07-21T01:50:55.900Z,99.90
2017-07-21T01:53:23.487Z,99.90
2017-07-21T01:55:51.008Z,99.90
2017-07-21T01:58:18.895Z,99.90
2017-07-21T02:00:46.418Z,99.90
2017-07-21T02:03:13.982Z,99.90
2017-07-21T02:05:41.722Z,99.90
2017-07-21T02:08:09.252Z,99.90
2017-07-21T02:10:37.067Z,99.90
2017-07-21T02:13:04.583Z,99.90
2017-07-21T02:15:32.089Z,99.90
2017-07-21T02:17:59.906Z,99.90
2017-07-21T02:20:27.520Z,99.90
2017-07-21T02:22:55.027Z,99.90
2017-07-21T02:25:22.883Z,99.90
2017-07-21T02:27:50.434Z,99.90
2017-07-21T02:30:17.995Z,99.90
2017-07-21T02:32:45.638Z,99.90
2017-07-21T02:35:13.151Z,99.90
2017-07-21T02:37:40.705Z,99.90
2017-07-21T02:40:08.288Z,99.90
2017-07-21T02:42:35.848Z,99.90
2017-07-21T02:45:03.764Z,99.90
2017-07-21T02:47:31.279Z,99.90
2017-07-21T02:49:58.791Z,99.90
2017-07-21T02:52:26.591Z,99.90
2017-07-21T02:54:54.091Z,99.90
2017-07-21T02:57:21.676Z,99.90
2017-07-21T02:59:49.279Z,99.90
2017-07-21T03:02:16.791Z,99.90
2017-07-21T03:04:44.528Z,99.90
2017-07-21T03:07:12.135Z,99.90
2017-07-21T03:09:39.759Z,99.90
2017-07-21T03:12:07.389Z,99.90
2017-07-21T03:14:34.927Z,99.90
2017-07-21T03:17:02.628Z,99.90
2017-07-21T03:19:30.199Z,99.90
2017-07-21T03:21:58.015Z,99.90
2017-07-21T03:24:25.527Z,99.90
2017-07-21T03:26:53.034Z,99.90
2017-07-21T03:29:20.587Z,99.90
2017-07-21T03:31:48.091Z,99.90
2017-07-21T03:34:15.688Z,99.90
2017-07-21T03:36:43.594Z,99.90
2017-07-21T03:39:11.099Z,99.90
2017-07-21T03:41:38.622Z,99.90
2017-07-21T03:44:06.486Z,99.90
2017-07-21T03:46:34.039Z,99.90
2017-07-21T03:49:01.634Z,99.90
2017-07-21T03:51:29.203Z,99.90
2017-07-21T03:53:56.727Z,99.90
2017-07-21T03:56:24.272Z,99.90
2017-07-21T03:58:52.129Z,99.90
2017-07-21T04:01:19.663Z,99.90
2017-07-21T04:03:47.282Z,99.90
2017-07-21T04:06:15.158Z,99.90
2017-07-21T04:08:42.658Z,99.90
2017-07-21T04:11:10.166Z,99.90
2017-07-21T04:13:37.966Z,99.90
2017-07-21T04:16:05.489Z,99.90
2017-07-21T04:18:33.093Z,99.90
2017-07-21T04:21:00.648Z,99.90
2017-07-21T04:23:28.223Z,99.90
2017-07-21T04:25:55.778Z,99.90
2017-07-21T04:28:24.093Z,99.90
2017-07-21T04:30:51.607Z,99.90
2017-07-21T04:33:19.130Z,99.90
2017-07-21T04:35:46.813Z,99.90
2017-07-21T04:38:14.459Z,99.90
2017-07-21T04:40:41.982Z,99.90
2017-07-21T04:43:09.641Z,99.90
2017-07-21T04:45:37.461Z,99.90
2017-07-21T04:48:05.306Z,99.90
2017-07-21T04:50:33.241Z,99.90
2017-07-21T04:53:00.747Z,99.90
2017-07-21T04:55:28.250Z,99.90
2017-07-21T04:57:55.879Z,99.90
2017-07-21T05:00:23.503Z,99.90
2017-07-21T05:02:51.694Z,99.90
2017-07-21T05:05:19.270Z,99.90
2017-07-21T05:07:47.004Z,99.90
2017-07-21T05:10:15.018Z,99.90
2017-07-21T05:12:42.667Z,99.90
2017-07-21T05:15:10.178Z,99.90
2017-07-21T05:17:37.820Z,99.90
2017-07-21T05:20:05.343Z,99.90
2017-07-21T05:22:33.047Z,99.90
2017-07-21T05:25:00.859Z,99.90
2017-07-21T05:27:28.503Z,99.90
2017-07-21T05:29:56.056Z,99.90
2017-07-21T05:32:23.784Z,99.90
2017-07-21T05:34:51.523Z,99.90
2017-07-21T05:37:19.203Z,99.90
2017-07-21T05:39:46.944Z,99.90
2017-07-21T05:42:15.191Z,99.90
2017-07-21T05:44:42.983Z,99.90
2017-07-21T05:47:10.947Z,99.90
2017-07-21T05:49:38.719Z,99.90
2017-07-21T05:52:06.387Z,99.90
2017-07-21T05:54:34.163Z,99.90
2017-07-21T05:57:01.920Z,99.90
2017-07-21T06:12:16.984Z,99.90
2017-07-21T06:14:44.642Z,99.90
2017-07-21T06:17:12.922Z,99.90
2017-07-21T06:19:41.803Z,99.90
2017-07-21T06:22:09.749Z,99.90
2017-07-21T06:24:37.527Z,99.90
2017-07-21T06:27:05.831Z,99.90
2017-07-21T06:29:33.523Z,99.90
2017-07-21T06:32:01.202Z,99.90
2017-07-21T06:34:28.908Z,99.90
2017-07-21T06:36:56.612Z,99.90
2017-07-21T06:39:24.406Z,99.70
2017-07-21T06:41:52.182Z,99.90
2017-07-21T06:44:19.719Z,99.90
2017-07-21T06:46:47.222Z,98.90
2017-07-21T06:49:14.770Z,97.10
2017-07-21T06:51:42.295Z,94.70
2017-07-21T06:54:09.954Z,94.50
2017-07-21T06:56:37.744Z,94.10
2017-07-21T06:59:05.382Z,92.90
2017-07-21T07:01:32.899Z,92.00
2017-07-21T07:04:00.594Z,92.50
2017-07-21T07:06:28.402Z,91.00
2017-07-21T07:08:56.085Z,90.50
2017-07-21T07:11:24.192Z,85.60
2017-07-21T07:13:51.779Z,78.00
2017-07-21T07:16:19.550Z,82.50
2017-07-21T07:18:47.195Z,74.00
2017-07-21T07:21:14.702Z,71.50
2017-07-21T07:23:42.206Z,72.60
2017-07-21T07:26:10.035Z,76.30
2017-07-21T07:28:37.543Z,71.10
2017-07-21T07:31:05.044Z,68.70
2017-07-21T07:33:32.843Z,64.10
2017-07-21T07:36:00.351Z,66.10
2017-07-21T07:38:27.902Z,65.30
2017-07-21T07:40:55.759Z,63.70
2017-07-21T07:43:23.263Z,58.80
2017-07-21T07:45:50.786Z,58.90
2017-07-21T07:48:18.366Z,55.50
2017-07-21T07:50:45.870Z,55.70
2017-07-21T07:53:13.374Z,56.70
2017-07-21T07:55:41.278Z,56.60
2017-07-21T07:58:08.786Z,53.20
2017-07-21T08:00:36.290Z,53.70
2017-07-21T08:03:04.092Z,50.80
2017-07-21T08:05:31.691Z,51.30
2017-07-21T08:07:59.415Z,49.50
2017-07-21T08:10:27.267Z,44.90
2017-07-21T08:12:55.100Z,40.60
2017-07-21T08:15:22.626Z,44.40
2017-07-21T08:17:50.226Z,42.60
2017-07-21T08:20:17.889Z,42.80
2017-07-21T08:22:45.438Z,43.60
2017-07-21T08:25:13.022Z,43.80
2017-07-21T08:27:40.730Z,44.30
2017-07-21T08:30:08.249Z,47.40
2017-07-21T08:32:35.846Z,44.50
2017-07-21T08:35:03.375Z,44.70
2017-07-21T08:37:30.875Z,46.80
2017-07-21T08:39:58.434Z,45.70
2017-07-21T08:42:26.246Z,46.70
2017-07-21T08:44:53.781Z,43.50
2017-07-21T08:47:21.324Z,43.10
2017-07-21T08:49:48.870Z,41.80
2017-07-21T08:52:16.449Z,41.10
2017-07-21T08:54:43.994Z,41.50
2017-07-21T08:57:11.535Z,41.00
2017-07-21T08:59:39.104Z,37.90
2017-07-21T09:02:06.611Z,36.80
2017-07-21T09:04:34.250Z,37.50
2017-07-21T09:07:01.811Z,38.70
2017-07-21T09:09:29.548Z,39.30
2017-07-21T09:11:57.456Z,39.00
2017-07-21T09:14:24.982Z,37.00
2017-07-21T09:16:52.490Z,36.10
2017-07-21T09:19:20.405Z,39.70
2017-07-21T09:21:47.905Z,39.50
2017-07-21T09:24:15.402Z,39.70
2017-07-21T09:26:43.184Z,39.20
2017-07-21T09:29:11.108Z,38.90
2017-07-21T09:31:38.615Z,39.60
2017-07-21T09:34:06.164Z,39.90
2017-07-21T09:36:33.680Z,39.00
2017-07-21T09:39:01.196Z,39.20
2017-07-21T09:41:28.763Z,38.80
2017-07-21T09:43:56.335Z,40.20
2017-07-21T09:46:23.846Z,40.90
2017-07-21T09:48:51.686Z,43.60
2017-07-21T09:51:19.550Z,44.60
2017-07-21T09:53:47.127Z,43.50
2017-07-21T09:56:14.663Z,42.00
2017-07-21T09:58:42.163Z,38.80
2017-07-21T10:01:09.658Z,36.70
2017-07-21T10:03:37.171Z,35.90
2017-07-21T10:06:05.174Z,39.20
2017-07-21T10:08:32.683Z,38.60
2017-07-21T10:11:00.223Z,38.10
2017-07-21T10:13:27.987Z,40.00
2017-07-21T10:15:55.499Z,38.00
2017-07-21T10:18:22.998Z,36.90
2017-07-21T10:20:50.621Z,37.20
2017-07-21T10:23:18.131Z,38.60
2017-07-21T10:25:45.981Z,38.60
2017-07-21T10:28:13.794Z,39.80
2017-07-21T10:30:41.290Z,42.60
2017-07-21T10:33:09.063Z,41.90
2017-07-21T10:35:36.689Z,39.30
2017-07-21T10:38:04.303Z,38.30
2017-07-21T10:40:32.359Z,37.10
2017-07-21T10:43:00.043Z,36.00
2017-07-21T10:45:27.578Z,36.00
2017-07-21T10:47:55.179Z,37.90
2017-07-21T10:50:22.693Z,36.40
2017-07-21T10:52:50.198Z,35.80
2017-07-21T10:55:18.206Z,35.00
2017-07-21T10:57:45.985Z,36.90
2017-07-21T11:00:13.507Z,38.50
2017-07-21T11:02:41.078Z,38.10
2017-07-21T11:05:08.599Z,38.70
2017-07-21T11:07:36.269Z,37.80
2017-07-21T11:10:04.364Z,37.60
2017-07-21T11:12:31.906Z,36.60
2017-07-21T11:14:59.456Z,36.60
2017-07-21T11:17:27.012Z,36.40
2017-07-21T11:19:54.631Z,36.80
2017-07-21T11:22:22.197Z,37.60
2017-07-21T11:24:49.871Z,36.80
2017-07-21T11:27:17.398Z,36.40
2017-07-21T11:29:45.230Z,34.60
2017-07-21T11:32:12.784Z,33.00
2017-07-21T11:34:40.561Z,33.90
2017-07-21T11:37:08.151Z,34.40
2017-07-21T11:39:35.719Z,35.40
2017-07-21T11:42:03.245Z,33.70
2017-07-21T11:44:30.817Z,32.00
2017-07-21T11:46:58.642Z,32.10
2017-07-21T11:49:26.268Z,32.50
2017-07-21T11:51:54.056Z,33.20
2017-07-21T11:54:21.674Z,34.70
2017-07-21T11:56:49.216Z,33.70
2017-07-21T11:59:16.626Z,33.40
2017-07-21T12:01:44.287Z,35.30
2017-07-21T12:04:11.802Z,36.80
2017-07-21T12:06:39.388Z,37.90
2017-07-21T12:09:06.898Z,35.80
2017-07-21T12:11:34.423Z,36.20
2017-07-21T12:14:02.030Z,35.30
2017-07-21T12:16:29.573Z,33.50
2017-07-21T12:18:57.219Z,35.00
2017-07-21T12:21:25.174Z,36.40
2017-07-21T12:23:52.978Z,38.00
2017-07-21T12:26:20.870Z,37.40
2017-07-21T12:28:48.696Z,35.10
2017-07-21T12:31:16.434Z,33.50
2017-07-21T12:33:44.088Z,33.30
2017-07-21T12:36:11.877Z,33.80
2017-07-21T12:38:39.832Z,33.00
2017-07-21T12:41:08.445Z,31.70
2017-07-21T12:43:36.376Z,33.30
2017-07-21T12:46:04.150Z,34.60
2017-07-21T12:48:31.694Z,33.40
2017-07-21T12:50:59.274Z,34.60
2017-07-21T12:53:27.058Z,36.20
2017-07-21T12:55:54.817Z,34.30
2017-07-21T12:58:22.403Z,33.10
2017-07-21T13:00:49.908Z,32.20
2017-07-21T13:03:17.170Z,31.80
2017-07-21T13:05:44.724Z,30.00
2017-07-21T13:08:12.323Z,29.40
2017-07-21T13:10:39.837Z,29.40
2017-07-21T13:13:07.397Z,29.50
2017-07-21T13:15:34.908Z,31.10
2017-07-21T13:18:02.410Z,33.10
2017-07-21T13:20:30.004Z,33.70
2017-07-21T13:22:57.554Z,34.20
2017-07-21T13:25:25.071Z,33.90
2017-07-21T13:27:52.656Z,32.70
2017-07-21T13:30:20.163Z,31.90
2017-07-21T13:32:47.672Z,30.90
2017-07-21T13:35:15.259Z,31.50
2017-07-21T13:37:42.761Z,30.40
2017-07-21T13:40:10.267Z,31.90
2017-07-21T13:42:37.826Z,34.60
2017-07-21T13:45:05.349Z,32.70
2017-07-21T13:47:32.928Z,31.40
2017-07-21T13:50:00.517Z,30.00
2017-07-21T13:52:28.068Z,31.40
2017-07-21T13:54:55.571Z,32.90
2017-07-21T13:57:23.207Z,34.30
2017-07-21T13:59:51.356Z,36.00
2017-07-21T14:02:19.101Z,36.70
2017-07-21T14:04:46.897Z,37.80
2017-07-21T14:07:14.594Z,38.00
2017-07-21T14:09:42.162Z,36.80
2017-07-21T14:12:09.786Z,35.60
2017-07-21T14:14:37.517Z,35.00
2017-07-21T14:17:05.160Z,33.10
2017-07-21T14:19:32.939Z,33.70
2017-07-21T14:22:00.615Z,32.70
2017-07-21T14:24:28.143Z,34.10
2017-07-21T14:26:55.690Z,33.40
2017-07-21T14:29:23.295Z,32.70
2017-07-21T14:31:50.807Z,31.30
2017-07-21T14:34:18.975Z,30.80
2017-07-21T14:36:46.832Z,32.90
2017-07-21T14:39:14.634Z,34.50
2017-07-21T14:41:42.527Z,35.30
2017-07-21T14:44:10.511Z,35.50
2017-07-21T14:46:38.270Z,34.50
2017-07-21T14:49:05.860Z,33.70
2017-07-21T14:51:33.507Z,32.90
2017-07-21T14:54:01.021Z,32.30
2017-07-21T14:56:28.580Z,32.40
2017-07-21T14:58:56.084Z,31.20
2017-07-21T15:01:23.587Z,32.00
2017-07-21T15:03:51.148Z,33.10
2017-07-21T15:06:18.728Z,35.10
2017-07-21T15:08:46.244Z,35.70
2017-07-21T15:11:13.791Z,35.10
2017-07-21T15:13:41.291Z,35.40
2017-07-21T15:16:08.803Z,34.60
2017-07-21T15:18:36.358Z,35.00
2017-07-21T15:21:03.862Z,35.30
2017-07-21T15:23:31.355Z,35.30
2017-07-21T15:25:58.903Z,35.80
2017-07-21T15:28:26.414Z,35.10
2017-07-21T15:30:53.919Z,35.50
2017-07-21T15:33:21.523Z,34.50
2017-07-21T15:35:49.056Z,35.00
2017-07-21T15:38:16.849Z,34.60
2017-07-21T15:40:44.794Z,34.70
2017-07-21T15:43:12.643Z,34.00
2017-07-21T15:45:40.203Z,35.00
2017-07-21T15:48:08.014Z,35.50
2017-07-21T15:50:35.531Z,35.30
2017-07-21T15:53:03.051Z,34.40
2017-07-21T15:55:30.648Z,34.60
2017-07-21T15:57:58.358Z,35.40
2017-07-21T16:00:26.047Z,35.50
2017-07-21T16:02:53.619Z,35.30
2017-07-21T16:05:21.130Z,37.00
2017-07-21T16:07:48.638Z,38.80
2017-07-21T16:10:16.220Z,38.10
2017-07-21T16:12:45.872Z,38.80
2017-07-21T16:15:13.423Z,39.40
2017-07-21T16:17:41.127Z,40.10
2017-07-21T16:20:08.684Z,39.70
2017-07-21T16:22:36.210Z,39.60
2017-07-21T16:25:03.730Z,39.10
2017-07-21T16:27:31.282Z,38.40
2017-07-21T16:29:59.778Z,38.10
2017-07-21T16:32:27.454Z,38.40
2017-07-21T16:34:55.108Z,38.90
2017-07-21T16:37:22.759Z,39.30
2017-07-21T16:39:51.483Z,40.90
2017-07-21T16:42:19.387Z,40.60
2017-07-21T16:44:47.206Z,41.40
2017-07-21T16:47:14.800Z,41.80
2017-07-21T16:49:42.627Z,41.90
2017-07-21T16:52:10.464Z,41.80
2017-07-21T16:54:38.067Z,41.80
2017-07-21T16:57:05.718Z,41.60
2017-07-21T16:59:33.222Z,42.30
2017-07-21T17:02:00.811Z,42.60
2017-07-21T17:04:28.378Z,42.20
2017-07-21T17:06:55.941Z,42.80
2017-07-21T17:09:23.464Z,43.40
2017-07-21T17:11:51.048Z,44.20
2017-07-21T17:14:18.574Z,44.40
2017-07-21T17:16:46.159Z,45.20
2017-07-21T17:19:14.382Z,44.90
2017-07-21T17:21:41.918Z,46.00
2017-07-21T17:24:09.478Z,46.70
2017-07-21T17:26:37.169Z,46.90
2017-07-21T17:29:04.663Z,46.20
2017-07-21T17:31:32.179Z,46.70
2017-07-21T17:33:59.835Z,47.30
2017-07-21T17:36:27.455Z,48.20
2017-07-21T17:38:54.958Z,48.00
2017-07-21T17:41:22.511Z,48.40
2017-07-21T17:43:50.193Z,49.30
2017-07-21T17:46:17.706Z,50.00
2017-07-21T17:48:45.278Z,50.60
2017-07-21T17:51:12.819Z,50.70
2017-07-21T17:53:40.343Z,51.20
2017-07-21T17:56:07.944Z,51.50
2017-07-21T17:58:35.442Z,52.00
2017-07-21T18:01:03.643Z,53.20
2017-07-21T18:03:31.211Z,53.40
2017-07-21T18:05:58.779Z,53.20
2017-07-21T18:08:26.374Z,54.00
2017-07-21T18:10:53.949Z,53.40
2017-07-21T18:13:21.514Z,53.70
2017-07-21T18:15:49.186Z,54.40
2017-07-21T18:18:16.779Z,54.60
2017-07-21T18:20:44.306Z,55.00
2017-07-21T18:23:11.810Z,56.00
2017-07-21T18:25:39.407Z,56.00
2017-07-21T18:28:06.932Z,56.50
2017-07-21T18:30:34.493Z,57.50
2017-07-21T18:33:02.046Z,57.20
2017-07-21T18:35:29.551Z,58.10
2017-07-21T18:37:57.105Z,58.60
2017-07-21T18:40:24.674Z,59.70
2017-07-21T18:42:52.199Z,59.50
2017-07-21T18:45:19.764Z,60.30
2017-07-21T18:47:47.942Z,60.10
2017-07-21T18:50:15.438Z,59.00
2017-07-21T18:52:43.106Z,62.00
2017-07-21T18:55:10.623Z,64.00
2017-07-21T18:57:38.133Z,65.00
2017-07-21T19:00:05.697Z,64.00
2017-07-21T19:02:33.221Z,69.60
2017-07-21T19:05:00.795Z,69.80
2017-07-21T19:07:28.396Z,70.20
2017-07-21T19:09:55.918Z,68.10
2017-07-21T19:12:23.414Z,67.20
2017-07-21T19:14:51.013Z,66.00
2017-07-21T19:17:18.523Z,66.00
2017-07-21T19:19:46.515Z,66.10
2017-07-21T19:22:14.062Z,66.60
2017-07-21T19:24:41.681Z,66.80
2017-07-21T19:27:09.526Z,66.30
2017-07-21T19:29:37.189Z,68.60
2017-07-21T19:32:04.714Z,66.50
2017-07-21T19:34:32.319Z,65.20
2017-07-21T19:36:59.866Z,65.30
2017-07-21T19:39:27.370Z,64.90
2017-07-21T19:41:55.284Z,66.20
2017-07-21T19:44:23.395Z,67.50
2017-07-21T19:46:51.742Z,68.40
2017-07-21T19:49:19.519Z,71.50
2017-07-21T19:51:47.056Z,74.00
2017-07-21T19:54:14.747Z,75.50
2017-07-21T19:56:42.397Z,77.50
2017-07-21T19:59:09.890Z,76.80
2017-07-21T20:01:37.402Z,78.50
2017-07-21T20:04:05.610Z,79.40
2017-07-21T20:06:33.705Z,79.40
2017-07-21T20:09:01.292Z,80.20
2017-07-21T20:11:29.567Z,80.50
2017-07-21T20:13:57.116Z,81.50
2017-07-21T20:16:24.668Z,84.70
2017-07-21T20:18:52.750Z,86.10
2017-07-21T20:21:20.387Z,88.90
2017-07-21T20:23:48.343Z,92.20
2017-07-21T20:26:16.040Z,92.70
2017-07-21T20:28:43.562Z,93.10
2017-07-21T20:31:11.079Z,95.30
2017-07-21T20:33:38.656Z,97.00
2017-07-21T20:36:06.446Z,96.40
2017-07-21T20:38:33.986Z,95.00
2017-07-21T20:41:01.617Z,95.80
2017-07-21T20:43:29.144Z,96.00
2017-07-21T20:45:56.703Z,97.80
2017-07-21T20:48:24.650Z,98.60
2017-07-21T20:50:52.171Z,99.50
2017-07-21T20:53:19.802Z,99.90
2017-07-21T20:55:47.409Z,99.90
2017-07-21T20:58:15.208Z,99.90
2017-07-21T21:00:42.800Z,99.20
2017-07-21T21:03:10.374Z,99.90
2017-07-21T21:05:37.918Z,99.90
2017-07-21T21:08:05.435Z,99.90
2017-07-21T21:10:33.026Z,99.90
2017-07-21T21:13:00.531Z,99.90
2017-07-21T21:15:28.108Z,99.90
2017-07-21T21:17:55.663Z,99.90
2017-07-21T21:20:23.235Z,99.90
2017-07-21T21:22:50.741Z,99.90
2017-07-21T21:25:18.285Z,99.90
2017-07-21T21:27:45.781Z,99.90
2017-07-21T21:30:13.875Z,99.90
2017-07-21T21:32:41.442Z,99.90
2017-07-21T21:35:08.947Z,99.90
2017-07-21T21:37:36.518Z,99.90
2017-07-21T21:40:04.176Z,99.90
2017-07-21T21:42:31.683Z,99.90
2017-07-21T21:44:59.180Z,99.90
2017-07-21T21:47:26.898Z,99.90
2017-07-21T21:49:54.442Z,99.90
2017-07-21T21:52:22.742Z,99.90
2017-07-21T21:54:50.353Z,99.90
2017-07-21T21:57:17.949Z,99.90
2017-07-21T21:59:45.483Z,99.90
2017-07-21T22:02:13.048Z,99.90
2017-07-21T22:04:40.563Z,99.90
2017-07-21T22:07:08.083Z,99.90
2017-07-21T22:09:35.656Z,99.90
2017-07-21T22:12:03.207Z,99.90
2017-07-21T22:14:30.730Z,99.90
2017-07-21T22:16:58.282Z,99.90
2017-07-21T22:19:25.902Z,99.90
2017-07-21T22:21:53.430Z,99.90
2017-07-21T22:24:21.143Z,99.90
2017-07-21T22:26:48.710Z,99.90
2017-07-21T22:29:16.232Z,99.90
2017-07-21T22:31:43.803Z,99.90
2017-07-21T22:34:11.312Z,99.90
2017-07-21T22:36:38.890Z,99.90
2017-07-21T22:39:06.435Z,99.90
2017-07-21T22:41:33.944Z,99.90
2017-07-21T22:44:01.481Z,99.90
2017-07-21T22:46:29.055Z,99.90
2017-07-21T22:48:56.632Z,99.90
2017-07-21T22:51:24.181Z,99.90
2017-07-21T22:53:51.863Z,99.90
2017-07-21T22:56:19.823Z,99.90
2017-07-21T22:58:47.347Z,99.90
2017-07-21T23:01:14.912Z,99.90
2017-07-21T23:03:42.465Z,99.90
2017-07-21T23:06:10.053Z,99.90
2017-07-21T23:08:37.721Z,99.90
2017-07-21T23:11:05.253Z,99.90
2017-07-21T23:13:32.846Z,99.90
2017-07-21T23:16:00.416Z,99.90
2017-07-21T23:18:27.965Z,99.90
2017-07-21T23:20:55.614Z,99.90
2017-07-21T23:23:23.188Z,99.90
2017-07-21T23:25:50.775Z,99.90
2017-07-21T23:28:18.291Z,99.90
2017-07-21T23:30:45.887Z,99.90
2017-07-21T23:33:13.396Z,99.90
2017-07-21T23:35:40.903Z,99.90
2017-07-21T23:38:08.446Z,99.90
2017-07-21T23:40:35.946Z,99.90
2017-07-21T23:43:03.528Z,99.90
2017-07-21T23:45:31.091Z,99.90
2017-07-21T23:47:58.638Z,99.90
2017-07-21T23:50:26.165Z,99.90
2017-07-21T23:52:53.715Z,99.90
2017-07-21T23:55:21.276Z,99.90
2017-07-21T23:57:48.774Z,99.90
